Time;durP1;ratioP1;P1;durP2;ratioP2;P2;SDS_P1;SDS_P2;PMS_P1;PMS_P2;Temp;Humidity;BMP_temperature;BMP_pressure;BME280_temperature;BME280_humidity;BME280_pressure;Samples;Min_cycle;Max_cycle;Signal;HPM_P1;HPM_P2
2021/11/01 00:02:25;;;;;;;;;;;;;;;11.15;82.53;99974.72;5053840;28;1894;-60
2021/11/01 00:04:55;;;;;;;;;;;;;;;11.04;82.92;99963.72;5053860;28;806;-60
2021/11/01 00:07:22;;;;;;;;;;;;;;;10.93;83.65;99962.97;5053915;28;881;-60
2021/11/01 00:09:48;;;;;;;;;;;;;;;10.87;83.82;99959.03;5053800;28;822;-60
2021/11/01 00:12:15;;;;;;;;;;;;;;;10.86;83.94;99962.19;5053855;28;878;-60
2021/11/01 00:14:42;;;;;;;;;;;;;;;10.86;84.07;99956.66;5053723;28;913;-60
2021/11/01 00:17:08;;;;;;;;;;;;;;;10.89;83.62;99959.44;5053597;28;906;-60
2021/11/01 00:19:35;;;;;;;;;;;;;;;10.93;84.02;99960.22;5053344;28;1300;-60
2021/11/01 00:22:01;;;;;;;;;;;;;;;10.95;84.04;99957.06;5053727;28;830;-61
2021/11/01 00:24:28;;;;;;;;;;;;;;;10.98;84.05;99950.72;5053434;28;1914;-60
2021/11/01 00:26:54;;;;;;;;;;;;;;;11.00;83.91;99954.63;5053440;28;893;-60
2021/11/01 00:29:21;;;;;;;;;;;;;;;10.99;83.72;99949.53;5053379;28;815;-60
2021/11/01 00:31:47;;;;;;;;;;;;;;;10.97;83.73;99951.91;5053444;28;834;-60
2021/11/01 00:34:14;;;;;;;;;;;;;;;10.95;83.93;99946.78;5035425;28;1499;-61
2021/11/01 00:36:40;;;;;;;;;;;;;;;10.98;84.25;99950.72;5052316;28;830;-60
2021/11/01 00:39:07;;;;;;;;;;;;;;;11.00;84.54;99953.84;5053470;28;850;-60
2021/11/01 00:41:34;;;;;;;;;;;;;;;11.00;84.07;99953.84;5053435;28;912;-60
2021/11/01 00:44:00;;;;;;;;;;;;;;;10.96;84.34;99948.34;5053077;28;1949;-60
2021/11/01 00:46:27;;;;;;;;;;;;;;;10.92;84.80;99946.78;5053103;28;835;-61
2021/11/01 00:48:54;;;;;;;;;;;;;;;10.90;84.70;99943.63;5053080;28;846;-61
2021/11/01 00:51:21;;;;;;;;;;;;;;;10.87;85.13;99942.44;5053014;28;830;-61
2021/11/01 00:53:48;;;;;;;;;;;;;;;10.88;85.18;99940.47;5052925;28;896;-60
2021/11/01 00:56:16;;;;;;;;;;;;;;;10.88;85.28;99943.22;5052932;28;826;-60
2021/11/01 00:58:43;;;;;;;;;;;;;;;10.90;85.44;99932.56;5052760;28;857;-60
2021/11/01 01:01:10;;;;;;;;;;;;;;;10.94;85.33;99931.34;5052832;28;799;-60
2021/11/01 01:03:37;;;;;;;;;;;;;;;10.99;85.08;99924.63;5052673;28;1943;-60
2021/11/01 01:06:03;;;;;;;;;;;;;;;11.03;85.39;99926.19;5052704;28;814;-60
2021/11/01 01:08:30;;;;;;;;;;;;;;;11.00;85.47;99931.72;5052672;28;814;-60
2021/11/01 01:10:56;;;;;;;;;;;;;;;10.92;85.48;99928.19;5052629;28;896;-61
2021/11/01 01:13:27;;;;;;;;;;;;;;;10.84;85.52;99929.44;5034555;28;1161;-61
2021/11/01 01:16:02;;;;;;;;;;;;;;;10.76;85.99;99927.88;5052549;28;871;-60
2021/11/01 01:18:28;;;;;;;;;;;;;;;10.71;86.34;99922.75;5052354;28;1426;-60
2021/11/01 01:20:59;;;;;;;;;;;;;;;10.68;86.75;99916.06;5052469;28;830;-60
2021/11/01 01:23:26;;;;;;;;;;;;;;;10.68;87.16;99910.53;5034728;28;1910;-60
2021/11/01 01:25:55;;;;;;;;;;;;;;;10.70;87.33;99918.44;5052415;28;823;-61
2021/11/01 01:28:23;;;;;;;;;;;;;;;10.74;87.11;99906.16;5051050;28;1502;-60
2021/11/01 01:30:50;;;;;;;;;;;;;;;10.77;87.16;99913.66;5052218;28;807;-60
2021/11/01 01:33:17;;;;;;;;;;;;;;;10.81;87.03;99911.66;5052181;28;1188;-60
2021/11/01 01:35:43;;;;;;;;;;;;;;;10.85;86.77;99910.88;5052146;28;810;-60
2021/11/01 01:38:11;;;;;;;;;;;;;;;10.86;86.65;99910.47;5052244;28;861;-61
2021/11/01 01:40:38;;;;;;;;;;;;;;;10.89;86.18;99906.91;5052102;28;838;-60
2021/11/01 01:43:06;;;;;;;;;;;;;;;10.91;86.64;99904.50;5051892;28;1886;-61
2021/11/01 01:45:33;;;;;;;;;;;;;;;10.96;86.71;99903.31;5052003;28;870;-60
2021/11/01 01:48:00;;;;;;;;;;;;;;;10.98;86.47;99904.47;5051701;28;885;-60
2021/11/01 01:50:26;;;;;;;;;;;;;;;11.02;86.41;99904.47;5051963;28;873;-60
2021/11/01 01:52:53;;;;;;;;;;;;;;;11.07;86.18;99901.25;5051846;28;842;-60
2021/11/01 01:55:20;;;;;;;;;;;;;;;11.11;85.58;99901.25;5051860;28;854;-60
2021/11/01 01:57:49;;;;;;;;;;;;;;;11.17;85.62;99900.41;5051862;28;866;-61
2021/11/01 02:03:05;;;;;;;;;;;;;;;11.24;85.59;99903.16;5004841;28;1943;-61
2021/11/01 02:05:51;;;;;;;;;;;;;;;11.23;85.55;99903.56;5051742;28;787;-60
2021/11/01 02:08:17;;;;;;;;;;;;;;;11.19;85.20;99903.56;5051026;28;1598;-60
2021/11/01 02:10:45;;;;;;;;;;;;;;;11.19;85.46;99900.03;5051576;28;882;-60
2021/11/01 02:13:17;;;;;;;;;;;;;;;11.16;85.15;99898.06;5051546;28;985;-60
2021/11/01 02:15:49;;;;;;;;;;;;;;;11.16;85.34;99892.53;5051479;28;862;-60
2021/11/01 02:18:17;;;;;;;;;;;;;;;11.11;85.43;99893.72;5051501;28;1155;-61
2021/11/01 02:21:05;;;;;;;;;;;;;;;11.11;85.17;99893.72;5051556;28;849;-60
2021/11/01 02:23:36;;;;;;;;;;;;;;;11.10;85.00;99881.09;5051295;28;1918;-61
2021/11/01 02:26:03;;;;;;;;;;;;;;;11.05;84.97;99884.28;5051339;28;803;-61
2021/11/01 02:28:35;;;;;;;;;;;;;;;11.01;85.30;99881.56;5051406;28;854;-61
2021/11/01 02:31:02;;;;;;;;;;;;;;;11.01;85.28;99880.78;5051413;28;860;-61
2021/11/01 02:33:30;;;;;;;;;;;;;;;11.06;85.66;99872.03;5051401;28;854;-61
2021/11/01 02:35:57;;;;;;;;;;;;;;;11.13;85.79;99868.44;5051348;28;823;-60
2021/11/01 02:38:25;;;;;;;;;;;;;;;11.25;85.79;99865.22;5051398;28;901;-60
2021/11/01 02:40:52;;;;;;;;;;;;;;;11.34;85.19;99862.75;5033386;28;2378;-60
2021/11/01 02:43:19;;;;;;;;;;;;;;;11.38;85.10;99859.97;5051330;28;1889;-60
2021/11/01 02:45:46;;;;;;;;;;;;;;;11.41;85.35;99856.38;5051303;28;901;-60
2021/11/01 02:48:12;;;;;;;;;;;;;;;11.42;84.92;99864.28;5051190;28;803;-61
2021/11/01 02:50:39;;;;;;;;;;;;;;;11.45;84.78;99855.16;5051258;28;838;-60
2021/11/01 02:53:06;;;;;;;;;;;;;;;11.49;84.70;99857.91;5051235;28;866;-60
2021/11/01 02:55:34;;;;;;;;;;;;;;;11.50;84.58;99856.72;5051122;28;791;-61
2021/11/01 02:58:00;;;;;;;;;;;;;;;11.49;84.89;99855.16;5051104;28;909;-61
2021/11/01 03:00:28;;;;;;;;;;;;;;;11.45;84.89;99855.16;5053598;28;922;-61
2021/11/01 03:02:55;;;;;;;;;;;;;;;11.43;84.45;99845.69;5054967;28;1953;-60
2021/11/01 03:05:24;;;;;;;;;;;;;;;11.40;84.86;99843.75;5054976;28;885;-61
2021/11/01 03:07:52;;;;;;;;;;;;;;;11.35;84.58;99844.97;5055018;28;850;-61
2021/11/01 03:10:19;;;;;;;;;;;;;;;11.33;84.86;99835.50;5054916;28;823;-60
2021/11/01 03:12:47;;;;;;;;;;;;;;;11.27;84.42;99840.69;5055066;28;811;-61
2021/11/01 03:15:25;;;;;;;;;;;;;;;11.18;84.92;99841.16;5054825;28;870;-60
2021/11/01 03:17:58;;;;;;;;;;;;;;;11.13;85.05;99836.03;5054713;28;1028;-61
2021/11/01 03:20:27;;;;;;;;;;;;;;;11.04;85.14;99833.72;5054746;28;878;-61
2021/11/01 03:22:55;;;;;;;;;;;;;;;11.04;85.74;99835.69;5054459;28;1994;-60
2021/11/01 03:25:28;;;;;;;;;;;;;;;11.02;85.62;99829.78;5054471;28;901;-61
2021/11/01 03:27:56;;;;;;;;;;;;;;;11.04;85.64;99830.94;5054494;28;922;-60
2021/11/01 03:30:25;;;;;;;;;;;;;;;11.10;85.31;99825.78;5054490;28;892;-60
2021/11/01 03:32:51;;;;;;;;;;;;;;;11.18;85.86;99826.50;5054486;28;834;-60
2021/11/01 03:35:19;;;;;;;;;;;;;;;11.26;85.63;99816.97;5054393;28;882;-60
2021/11/01 03:37:47;;;;;;;;;;;;;;;11.33;85.41;99821.66;5054411;28;819;-60
2021/11/01 03:40:18;;;;;;;;;;;;;;;11.38;85.07;99827.56;5054352;28;815;-61
2021/11/01 03:42:45;;;;;;;;;;;;;;;11.45;85.05;99823.94;5054531;28;1967;-61
2021/11/01 03:45:13;;;;;;;;;;;;;;;11.53;85.21;99832.97;5054533;28;814;-60
2021/11/01 03:47:42;;;;;;;;;;;;;;;11.58;84.79;99825.00;5054538;28;893;-61
2021/11/01 03:52:45;;;;;;;;;;;;;;;11.69;84.59;99815.81;5054177;28;759;-61
2021/11/01 03:55:12;;;;;;;;;;;;;;;11.73;84.41;99811.03;5054132;28;878;-61
2021/11/01 03:57:38;;;;;;;;;;;;;;;11.75;84.65;99814.19;5054019;28;863;-61
2021/11/01 04:00:06;;;;;;;;;;;;;;;11.76;84.71;99815.78;5054011;28;830;-60
2021/11/01 04:02:33;;;;;;;;;;;;;;;11.72;84.25;99807.50;5053911;28;1959;-60
2021/11/01 04:05:00;;;;;;;;;;;;;;;11.63;84.18;99815.50;5053816;28;862;-61
2021/11/01 04:07:28;;;;;;;;;;;;;;;11.57;84.61;99808.81;5053824;28;897;-60
2021/11/01 04:09:55;;;;;;;;;;;;;;;11.55;84.36;99802.91;5053868;28;866;-61
2021/11/01 04:12:21;;;;;;;;;;;;;;;11.56;84.42;99810.00;5053718;28;842;-61
2021/11/01 04:14:53;;;;;;;;;;;;;;;11.53;84.40;99805.31;5053786;28;810;-61
2021/11/01 04:22:38;;;;;;;;;;;;;;;11.48;84.75;99814.03;5054251;28;1919;-61
2021/11/01 04:25:08;;;;;;;;;;;;;;;11.50;84.48;99808.88;5053744;28;850;-61
2021/11/01 04:27:36;;;;;;;;;;;;;;;11.47;84.40;99810.47;5053427;28;811;-61
2021/11/01 04:30:07;;;;;;;;;;;;;;;11.46;84.65;99800.63;5053518;28;917;-60
2021/11/01 04:32:36;;;;;;;;;;;;;;;11.44;84.62;99800.25;5053413;28;838;-61
2021/11/01 04:35:12;;;;;;;;;;;;;;;11.37;84.98;99803.06;5053287;28;1033;-60
2021/11/01 04:37:41;;;;;;;;;;;;;;;11.29;85.12;99799.56;5053387;28;886;-61
2021/11/01 04:40:20;;;;;;;;;;;;;;;11.24;85.62;99794.44;5053797;28;771;-61
2021/11/01 04:53:40;;;;;;;;;;;;;;;11.31;86.10;99782.53;5052934;28;586;-61
2021/11/01 04:56:07;;;;;;;;;;;;;;;11.33;86.55;99786.50;5052914;28;792;-61
2021/11/01 04:58:34;;;;;;;;;;;;;;;11.37;86.17;99778.94;5052816;28;815;-61
2021/11/01 05:01:01;;;;;;;;;;;;;;;11.41;86.53;99776.94;5053025;28;873;-60
2021/11/01 05:05:54;;;;;;;;;;;;;;;11.43;85.74;99760.69;5052706;28;796;-61
2021/11/01 05:08:25;;;;;;;;;;;;;;;11.46;85.62;99764.63;5052692;28;806;-61
2021/11/01 05:10:55;;;;;;;;;;;;;;;11.50;85.70;99761.81;5052710;28;858;-61
2021/11/01 05:23:51;;;;;;;;;;;;;;;11.71;83.32;99767.16;5051962;28;1918;-61
2021/11/01 05:29:08;;;;;;;;;;;;;;;11.79;83.03;99768.66;5052343;28;715;-60
2021/11/01 05:31:43;;;;;;;;;;;;;;;11.84;82.95;99767.41;5052303;28;917;-60
2021/11/01 05:34:17;;;;;;;;;;;;;;;11.90;82.88;99770.56;5052295;28;893;-60
2021/11/01 05:36:44;;;;;;;;;;;;;;;11.94;82.30;99772.09;5052223;28;818;-61
2021/11/01 05:39:11;;;;;;;;;;;;;;;12.00;81.82;99773.22;5052160;28;884;-61
2021/11/01 05:41:37;;;;;;;;;;;;;;;12.07;81.77;99772.34;5052091;28;896;-61
2021/11/01 05:44:05;;;;;;;;;;;;;;;12.12;81.29;99768.31;5052021;28;1910;-61
2021/11/01 05:46:35;;;;;;;;;;;;;;;12.16;81.09;99766.28;5052031;28;822;-61
2021/11/01 05:49:03;;;;;;;;;;;;;;;12.24;80.84;99773.31;5051888;28;814;-61
2021/11/01 05:51:30;;;;;;;;;;;;;;;12.32;80.15;99771.25;5052057;28;838;-61
2021/11/01 05:53:59;;;;;;;;;;;;;;;12.35;79.87;99776.75;5051909;28;814;-61
2021/11/01 05:56:50;;;;;;;;;;;;;;;12.42;79.69;99778.66;5052034;28;814;-61
2021/11/01 06:07:18;;;;;;;;;;;;;;;12.57;79.23;99779.25;5051671;28;688;-61
2021/11/01 06:14:58;;;;;;;;;;;;;;;12.73;78.80;99773.09;5051583;28;648;-61
2021/11/01 06:17:25;;;;;;;;;;;;;;;12.79;78.53;99774.19;5050274;28;1734;-61
2021/11/01 06:19:51;;;;;;;;;;;;;;;12.86;78.05;99768.53;5051422;28;1497;-61
2021/11/01 06:22:18;;;;;;;;;;;;;;;12.91;77.80;99770.84;5033605;28;862;-61
2021/11/01 06:24:52;;;;;;;;;;;;;;;13.00;77.26;99781.41;5033570;28;1907;-61
2021/11/01 06:27:21;;;;;;;;;;;;;;;13.10;76.89;99774.94;5051435;28;882;-61
2021/11/01 06:40:36;;;;;;;;;;;;;;;13.99;73.45;99769.03;5055815;28;640;-61
2021/11/01 06:43:10;;;;;;;;;;;;;;;14.15;72.79;99763.56;5037456;28;1898;-61
2021/11/01 06:53:52;;;;;;;;;;;;;;;13.90;72.71;99764.03;5055235;28;671;-61
2021/11/01 07:15:26;;;;;;;;;;;;;;;12.23;78.81;99772.53;5054888;28;751;-61
2021/11/01 07:18:00;;;;;;;;;;;;;;;12.13;79.71;99776.22;5054759;28;1072;-60
2021/11/01 08:23:19;;;;;;;;;;;;;;;13.92;75.63;99739.41;5053859;28;1967;-61
2021/11/01 08:44:45;;;;;;;;;;;;;;;14.39;74.92;99725.31;5053067;28;1947;-61
2021/11/01 09:18:44;;;;;;;;;;;;;;;14.13;75.14;99723.53;5052521;28;751;-61
2021/11/01 09:22:16;;;;;;;;;;;;;;;14.58;74.18;99714.63;5052488;28;632;-61
2021/11/01 09:24:44;;;;;;;;;;;;;;;14.64;74.18;99704.56;5052162;28;1910;-61
2021/11/01 09:27:16;;;;;;;;;;;;;;;14.67;74.09;99703.69;5052591;28;858;-61
2021/11/01 09:42:54;;;;;;;;;;;;;;;15.07;72.49;99673.69;5052277;28;1913;-61
2021/11/01 09:45:23;;;;;;;;;;;;;;;15.13;72.03;99676.75;5051949;28;1124;-61
2021/11/01 09:47:51;;;;;;;;;;;;;;;15.08;71.60;99671.69;5052330;28;850;-61
2021/11/01 09:50:20;;;;;;;;;;;;;;;15.04;71.52;99662.63;5051957;28;822;-61
2021/11/01 09:52:55;;;;;;;;;;;;;;;15.09;71.21;99670.47;5051864;28;877;-61
2021/11/01 10:00:50;;;;;;;;;;;;;;;14.50;72.35;99669.47;4990537;28;1275;-61
2021/11/01 10:03:17;;;;;;;;;;;;;;;14.09;73.53;99668.78;5039086;28;1984;-61
2021/11/01 10:05:57;;;;;;;;;;;;;;;13.78;74.58;99661.88;5051730;28;791;-61
2021/11/01 10:08:24;;;;;;;;;;;;;;;13.52;75.72;99669.16;5051620;28;822;-61
2021/11/01 10:10:50;;;;;;;;;;;;;;;13.53;76.16;99656.81;5051668;28;814;-61
2021/11/01 10:13:20;;;;;;;;;;;;;;;13.57;76.76;99650.00;5051528;28;841;-61
2021/11/01 10:18:44;;;;;;;;;;;;;;;13.41;77.33;99652.69;5051634;28;1190;-61
2021/11/01 10:21:11;;;;;;;;;;;;;;;13.27;77.84;99648.97;5051826;28;823;-61
2021/11/01 10:23:44;;;;;;;;;;;;;;;13.17;78.54;99638.06;5052202;28;1914;-61
2021/11/01 10:26:15;;;;;;;;;;;;;;;13.13;78.79;99635.34;5051487;28;901;-61
2021/11/01 10:28:43;;;;;;;;;;;;;;;13.18;79.01;99629.28;5051506;28;927;-61
2021/11/01 10:31:12;;;;;;;;;;;;;;;13.28;79.02;99633.88;5051384;28;975;-61
2021/11/01 10:33:43;;;;;;;;;;;;;;;13.44;78.99;99627.66;5051412;28;822;-61
2021/11/01 10:36:11;;;;;;;;;;;;;;;13.58;78.62;99626.56;5051409;28;791;-61
2021/11/01 10:38:41;;;;;;;;;;;;;;;13.47;78.59;99628.78;5051327;28;893;-61
2021/11/01 10:41:15;;;;;;;;;;;;;;;13.28;79.29;99622.78;5051600;28;802;-61
2021/11/01 11:13:36;;;;;;;;;;;;;;;13.90;78.44;99597.34;5051321;28;680;-61
2021/11/01 11:16:04;;;;;;;;;;;;;;;13.89;78.71;99595.81;5051189;28;826;-61
2021/11/01 11:21:21;;;;;;;;;;;;;;;13.67;78.69;99590.66;5052778;28;669;-61
2021/11/01 11:48:46;;;;;;;;;;;;;;;13.61;80.01;99583.28;5054284;28;700;-61
2021/11/01 11:51:12;;;;;;;;;;;;;;;13.67;79.80;99579.56;5054470;28;873;-61
2021/11/01 11:53:57;;;;;;;;;;;;;;;13.71;80.21;99582.28;5054227;28;897;-61
2021/11/01 11:56:30;;;;;;;;;;;;;;;13.72;80.13;99577.50;5054266;28;791;-60
2021/11/01 11:58:58;;;;;;;;;;;;;;;13.67;80.12;99570.47;5054030;28;898;-61
2021/11/01 12:01:26;;;;;;;;;;;;;;;13.62;80.58;99587.63;5054184;28;874;-61
2021/11/01 12:03:53;;;;;;;;;;;;;;;13.59;80.54;99583.72;5054186;28;1890;-60
2021/11/01 12:06:22;;;;;;;;;;;;;;;13.56;80.85;99583.78;5053953;28;845;-60
2021/11/01 12:08:55;;;;;;;;;;;;;;;13.60;81.03;99581.72;5053894;28;838;-60
2021/11/01 12:11:37;;;;;;;;;;;;;;;13.67;80.87;99581.56;5053754;28;806;-60
2021/11/01 12:14:34;;;;;;;;;;;;;;;13.71;80.88;99587.06;5053876;28;823;-60
2021/11/01 12:17:09;;;;;;;;;;;;;;;13.64;80.89;99590.78;5054029;28;935;-60
2021/11/01 12:19:36;;;;;;;;;;;;;;;13.57;81.21;99579.78;5053486;28;1448;-61
2021/11/01 12:22:07;;;;;;;;;;;;;;;13.52;81.47;99580.31;5053629;28;803;-60
2021/11/01 12:24:35;;;;;;;;;;;;;;;13.54;81.75;99586.22;5053539;28;1910;-61
2021/11/01 12:27:09;;;;;;;;;;;;;;;13.55;81.78;99590.53;5053626;28;901;-61
2021/11/01 12:29:35;;;;;;;;;;;;;;;13.56;81.64;99587.34;5053475;28;874;-61
2021/11/01 12:32:08;;;;;;;;;;;;;;;13.45;81.71;99590.34;5052319;28;854;-61
2021/11/01 12:34:44;;;;;;;;;;;;;;;13.18;81.98;99584.88;5053567;28;879;-62
2021/11/01 12:37:33;;;;;;;;;;;;;;;12.87;83.06;99587.81;5053407;28;807;-62
2021/11/01 12:40:19;;;;;;;;;;;;;;;12.68;83.55;99588.56;5053232;28;823;-62
2021/11/01 12:42:57;;;;;;;;;;;;;;;12.64;83.90;99585.84;5053290;28;791;-62
2021/11/01 12:59:49;;;;;;;;;;;;;;;12.91;85.81;99586.97;5035397;28;1084;-61
2021/11/01 13:02:26;;;;;;;;;;;;;;;12.97;85.37;99593.59;5052915;28;850;-62
2021/11/01 13:04:56;;;;;;;;;;;;;;;12.85;85.75;99595.78;5052736;28;1894;-61
2021/11/01 13:18:44;;;;;;;;;;;;;;;12.71;86.87;99589.69;5052551;28;1370;-61
2021/11/01 13:21:16;;;;;;;;;;;;;;;12.65;87.01;99592.16;5052889;28;814;-61
2021/11/01 13:23:53;;;;;;;;;;;;;;;12.61;87.64;99588.66;5052448;28;2009;-61
2021/11/01 13:37:35;;;;;;;;;;;;;;;12.71;87.86;99582.16;5052221;28;1272;-61
2021/11/01 13:40:07;;;;;;;;;;;;;;;12.72;87.97;99585.75;5052039;28;1093;-61
2021/11/01 13:42:34;;;;;;;;;;;;;;;12.72;88.03;99588.50;5052176;28;889;-61
2021/11/01 13:45:10;;;;;;;;;;;;;;;12.72;88.11;99583.75;5051648;28;1878;-61
2021/11/01 13:48:03;;;;;;;;;;;;;;;12.72;88.06;99580.19;5052113;28;815;-61
2021/11/01 13:50:37;;;;;;;;;;;;;;;12.69;87.97;99586.56;5048769;28;1126;-61
2021/11/01 13:53:10;;;;;;;;;;;;;;;12.66;88.19;99582.66;5051904;28;814;-61
2021/11/01 13:55:56;;;;;;;;;;;;;;;12.62;88.29;99582.72;5051929;28;818;-61
2021/11/01 14:10:53;;;;;;;;;;;;;;;12.47;88.78;99581.38;5051947;28;1897;-61
2021/11/01 14:17:34;;;;;;;;;;;;;;;12.36;89.35;99561.38;5051442;28;914;-61
2021/11/01 14:20:28;;;;;;;;;;;;;;;12.33;89.42;99560.25;5051447;28;1312;-60
2021/11/01 14:28:35;;;;;;;;;;;;;;;12.32;90.01;99569.75;4951505;29;744;-60
2021/11/01 15:12:21;;;;;;;;;;;;;;;12.06;91.21;99587.94;5055369;28;609;-61
2021/11/01 15:14:43;;;;;;;;;;;;;;;12.04;91.60;99582.81;5054664;28;1071;-60
2021/11/01 15:20:07;;;;;;;;;;;;;;;12.00;91.53;99586.84;5054571;28;1414;-60
2021/11/01 15:25:40;;;;;;;;;;;;;;;11.91;91.65;99578.28;5054696;28;1918;-60
2021/11/01 15:28:22;;;;;;;;;;;;;;;11.88;91.52;99576.28;5054332;28;961;-60
2021/11/01 15:42:07;;;;;;;;;;;;;;;11.69;92.25;99581.28;5054470;28;672;-60
2021/11/01 16:20:04;;;;;;;;;;;;;;;11.73;92.50;99582.03;5053534;28;1380;-60
2021/11/01 16:22:30;;;;;;;;;;;;;;;11.74;92.85;99580.06;5053817;28;834;-61
2021/11/01 16:24:58;;;;;;;;;;;;;;;11.74;92.80;99572.53;5053609;28;1976;-61
2021/11/01 16:27:25;;;;;;;;;;;;;;;11.74;92.96;99578.06;5053586;28;826;-61
2021/11/01 16:32:24;;;;;;;;;;;;;;;11.74;92.71;99575.28;5053476;28;827;-61
2021/11/01 16:34:56;;;;;;;;;;;;;;;11.75;93.01;99576.06;5053457;28;972;-60
2021/11/01 16:39:59;;;;;;;;;;;;;;;11.71;92.96;99586.41;5053571;28;688;-61
2021/11/01 16:42:31;;;;;;;;;;;;;;;11.69;93.20;99578.50;5053391;28;869;-60
2021/11/01 16:45:35;;;;;;;;;;;;;;;11.68;93.19;99588.03;5053164;28;1953;-61
2021/11/01 16:47:51;;;;;;;;;;;;;;;11.63;93.27;99582.97;5047771;28;1163;-61
2021/11/01 16:50:18;;;;;;;;;;;;;;;11.60;93.07;99592.84;5053161;28;827;-61
2021/11/01 16:52:47;;;;;;;;;;;;;;;11.60;93.53;99586.53;5053300;28;830;-61
2021/11/01 16:55:18;;;;;;;;;;;;;;;11.57;93.62;99585.41;5053124;28;841;-61
2021/11/01 16:57:47;;;;;;;;;;;;;;;11.57;93.80;99577.09;5053255;28;846;-61
2021/11/01 17:00:26;;;;;;;;;;;;;;;11.58;93.71;99580.63;5052996;28;846;-60
2021/11/01 17:05:57;;;;;;;;;;;;;;;11.61;93.49;99582.59;5052792;28;722;-60
2021/11/01 17:22:21;;;;;;;;;;;;;;;11.53;93.67;99590.19;5052595;28;691;-61
2021/11/01 17:27:51;;;;;;;;;;;;;;;11.51;93.87;99598.13;5028818;28;1298;-61
2021/11/01 18:39:44;;;;;;;;;;;;;;;11.53;94.22;99586.66;5031704;28;683;-61
2021/11/01 18:53:10;;;;;;;;;;;;;;;11.56;94.41;99580.25;5031697;28;653;-61
2021/11/01 18:55:37;;;;;;;;;;;;;;;11.59;94.49;99585.00;5031438;28;849;-61
2021/11/01 18:58:05;;;;;;;;;;;;;;;11.60;94.08;99579.03;5031291;28;894;-61
2021/11/01 19:00:39;;;;;;;;;;;;;;;11.58;93.84;99584.19;5031328;28;897;-61
2021/11/01 19:03:07;;;;;;;;;;;;;;;11.58;94.04;99581.41;5031380;28;1970;-61
2021/11/01 20:05:51;;;;;;;;;;;;;;;11.42;94.68;99581.25;5034111;28;696;-61
2021/11/01 20:09:08;;;;;;;;;;;;;;;11.43;94.48;99583.56;5032780;28;1381;-61
2021/11/01 20:11:55;;;;;;;;;;;;;;;11.42;94.37;99587.56;5033699;28;1122;-60
2021/11/01 20:14:32;;;;;;;;;;;;;;;11.43;94.63;99583.56;5033732;28;1718;-60
2021/11/01 21:26:19;;;;;;;;;;;;;;;11.38;94.72;99559.13;5052523;28;621;-61
2021/11/01 21:28:47;;;;;;;;;;;;;;;11.38;94.74;99553.59;5052467;28;842;-61
2021/11/01 21:31:14;;;;;;;;;;;;;;;11.40;94.84;99547.66;5052225;28;847;-61
2021/11/01 21:33:43;;;;;;;;;;;;;;;11.39;94.85;99548.84;5052393;28;866;-61
2021/11/01 21:36:12;;;;;;;;;;;;;;;11.39;94.59;99546.06;5052301;28;803;-61
2021/11/01 21:38:39;;;;;;;;;;;;;;;11.37;94.42;99542.94;5052236;28;879;-61
2021/11/01 21:41:06;;;;;;;;;;;;;;;11.36;94.47;99538.63;5052234;28;822;-61
2021/11/01 21:43:33;;;;;;;;;;;;;;;11.34;94.41;99530.72;5052118;28;1954;-61
2021/11/01 21:45:59;;;;;;;;;;;;;;;11.35;94.58;99525.97;5052048;28;822;-61
2021/11/01 21:48:26;;;;;;;;;;;;;;;11.38;95.13;99522.38;5052084;28;858;-61
2021/11/01 21:50:52;;;;;;;;;;;;;;;11.39;94.82;99526.72;5052101;28;842;-61
2021/11/01 21:53:21;;;;;;;;;;;;;;;11.39;94.58;99526.72;5051938;28;909;-61
2021/11/01 21:55:48;;;;;;;;;;;;;;;11.37;94.51;99526.34;5052301;28;954;-61
2021/11/01 22:24:43;;;;;;;;;;;;;;;11.41;94.36;99513.25;5051493;28;1905;-61
2021/11/01 22:40:47;;;;;;;;;;;;;;;11.38;94.65;99520.41;5044925;28;972;-61
2021/11/01 22:46:13;;;;;;;;;;;;;;;11.36;94.47;99513.72;5051311;28;907;-61
2021/11/01 22:57:10;;;;;;;;;;;;;;;11.34;94.18;99497.53;4989942;28;618;-60
2021/11/01 22:59:38;;;;;;;;;;;;;;;11.34;94.29;99492.00;4989923;28;1206;-60
2021/11/01 23:02:05;;;;;;;;;;;;;;;11.34;94.21;99486.44;4990132;28;863;-60
2021/11/01 23:31:56;;;;;;;;;;;;;;;11.06;94.68;99456.41;5033209;28;1056;-61
2021/11/01 23:34:23;;;;;;;;;;;;;;;11.00;94.66;99456.06;5034759;28;814;-61
2021/11/01 23:36:49;;;;;;;;;;;;;;;10.92;94.58;99451.81;5034820;28;882;-61
2021/11/01 23:39:16;;;;;;;;;;;;;;;10.85;94.23;99449.16;5034687;28;831;-61
2021/11/01 23:41:44;;;;;;;;;;;;;;;10.75;94.61;99450.81;5034509;28;1009;-61
2021/11/01 23:44:11;;;;;;;;;;;;;;;10.68;94.93;99446.16;5034562;28;1953;-61
2021/11/01 23:46:38;;;;;;;;;;;;;;;10.62;94.51;99443.06;5034523;28;877;-61
2021/11/01 23:49:05;;;;;;;;;;;;;;;10.53;94.57;99433.69;5034446;28;857;-61
2021/11/01 23:51:33;;;;;;;;;;;;;;;10.47;94.87;99429.81;5034447;28;826;-61
2021/11/01 23:56:26;;;;;;;;;;;;;;;10.56;95.74;99425.38;5034300;28;778;-61
2021/11/01 23:58:53;;;;;;;;;;;;;;;10.56;95.21;99419.84;5034258;28;833;-61
